sensor_id;sensor_type;location;lat;lon;timestamp;P1;durP1;ratioP1;P2;durP2;ratioP2
21430;SDS011;10876;49.038;10.608;2023-05-23T00:01:06;17.58;;;11.23;;
21430;SDS011;10876;49.038;10.608;2023-05-23T00:03:34;17.88;;;11.55;;
21430;SDS011;10876;49.038;10.608;2023-05-23T00:06:04;18.10;;;11.57;;
21430;SDS011;10876;49.038;10.608;2023-05-23T00:08:32;16.75;;;11.55;;
21430;SDS011;10876;49.038;10.608;2023-05-23T00:10:59;16.23;;;11.05;;
21430;SDS011;10876;49.038;10.608;2023-05-23T00:13:26;21.30;;;12.00;;
21430;SDS011;10876;49.038;10.608;2023-05-23T00:15:53;16.90;;;11.45;;
21430;SDS011;10876;49.038;10.608;2023-05-23T00:18:20;18.70;;;11.98;;
21430;SDS011;10876;49.038;10.608;2023-05-23T00:20:50;19.85;;;12.00;;
21430;SDS011;10876;49.038;10.608;2023-05-23T00:23:17;16.77;;;11.70;;
21430;SDS011;10876;49.038;10.608;2023-05-23T00:25:45;20.85;;;12.07;;
21430;SDS011;10876;49.038;10.608;2023-05-23T00:28:17;19.58;;;12.40;;
21430;SDS011;10876;49.038;10.608;2023-05-23T00:30:44;18.33;;;11.85;;
21430;SDS011;10876;49.038;10.608;2023-05-23T00:33:11;18.95;;;11.77;;
21430;SDS011;10876;49.038;10.608;2023-05-23T00:35:38;16.58;;;11.43;;
21430;SDS011;10876;49.038;10.608;2023-05-23T00:38:08;21.75;;;11.60;;
21430;SDS011;10876;49.038;10.608;2023-05-23T00:40:35;19.30;;;12.02;;
21430;SDS011;10876;49.038;10.608;2023-05-23T00:43:02;22.42;;;13.43;;
21430;SDS011;10876;49.038;10.608;2023-05-23T00:45:30;21.20;;;13.05;;
21430;SDS011;10876;49.038;10.608;2023-05-23T00:47:57;20.08;;;12.77;;
21430;SDS011;10876;49.038;10.608;2023-05-23T00:50:24;18.70;;;12.65;;
21430;SDS011;10876;49.038;10.608;2023-05-23T00:52:53;20.75;;;13.40;;
21430;SDS011;10876;49.038;10.608;2023-05-23T00:55:22;18.50;;;12.50;;
21430;SDS011;10876;49.038;10.608;2023-05-23T00:57:50;21.55;;;12.77;;
21430;SDS011;10876;49.038;10.608;2023-05-23T01:00:19;20.90;;;12.95;;
21430;SDS011;10876;49.038;10.608;2023-05-23T01:02:49;19.33;;;12.82;;
21430;SDS011;10876;49.038;10.608;2023-05-23T01:05:17;18.02;;;12.73;;
21430;SDS011;10876;49.038;10.608;2023-05-23T01:07:47;21.35;;;13.40;;
21430;SDS011;10876;49.038;10.608;2023-05-23T01:10:15;19.88;;;12.63;;
21430;SDS011;10876;49.038;10.608;2023-05-23T01:12:48;21.55;;;12.02;;
21430;SDS011;10876;49.038;10.608;2023-05-23T01:15:22;20.67;;;13.05;;
21430;SDS011;10876;49.038;10.608;2023-05-23T01:17:57;20.67;;;12.88;;
21430;SDS011;10876;49.038;10.608;2023-05-23T01:20:29;18.52;;;12.43;;
21430;SDS011;10876;49.038;10.608;2023-05-23T01:23:04;18.73;;;12.55;;
21430;SDS011;10876;49.038;10.608;2023-05-23T01:25:53;21.67;;;13.43;;
21430;SDS011;10876;49.038;10.608;2023-05-23T01:28:32;21.10;;;13.02;;
21430;SDS011;10876;49.038;10.608;2023-05-23T01:31:03;19.52;;;11.75;;
21430;SDS011;10876;49.038;10.608;2023-05-23T01:33:33;20.08;;;12.73;;
21430;SDS011;10876;49.038;10.608;2023-05-23T01:36:01;20.63;;;13.68;;
21430;SDS011;10876;49.038;10.608;2023-05-23T01:38:28;22.25;;;13.02;;
21430;SDS011;10876;49.038;10.608;2023-05-23T01:40:55;22.30;;;13.30;;
21430;SDS011;10876;49.038;10.608;2023-05-23T01:43:23;20.65;;;13.00;;
21430;SDS011;10876;49.038;10.608;2023-05-23T01:45:52;19.98;;;11.77;;
21430;SDS011;10876;49.038;10.608;2023-05-23T01:48:21;20.38;;;12.35;;
21430;SDS011;10876;49.038;10.608;2023-05-23T01:50:50;21.33;;;12.73;;
21430;SDS011;10876;49.038;10.608;2023-05-23T01:53:19;20.35;;;12.93;;
21430;SDS011;10876;49.038;10.608;2023-05-23T01:55:50;22.35;;;12.90;;
21430;SDS011;10876;49.038;10.608;2023-05-23T01:58:18;17.73;;;11.93;;
21430;SDS011;10876;49.038;10.608;2023-05-23T02:00:45;23.30;;;12.82;;
21430;SDS011;10876;49.038;10.608;2023-05-23T02:03:13;17.08;;;11.45;;
21430;SDS011;10876;49.038;10.608;2023-05-23T02:05:40;21.55;;;12.85;;
21430;SDS011;10876;49.038;10.608;2023-05-23T02:08:08;21.98;;;13.07;;
21430;SDS011;10876;49.038;10.608;2023-05-23T02:10:35;18.65;;;12.73;;
21430;SDS011;10876;49.038;10.608;2023-05-23T02:13:01;20.00;;;13.32;;
21430;SDS011;10876;49.038;10.608;2023-05-23T02:15:28;23.48;;;13.65;;
21430;SDS011;10876;49.038;10.608;2023-05-23T02:17:55;19.77;;;12.52;;
21430;SDS011;10876;49.038;10.608;2023-05-23T02:20:24;21.60;;;13.00;;
21430;SDS011;10876;49.038;10.608;2023-05-23T02:22:51;19.52;;;12.45;;
21430;SDS011;10876;49.038;10.608;2023-05-23T02:25:18;23.63;;;13.52;;
21430;SDS011;10876;49.038;10.608;2023-05-23T02:27:45;21.02;;;13.13;;
21430;SDS011;10876;49.038;10.608;2023-05-23T02:30:12;22.83;;;14.05;;
21430;SDS011;10876;49.038;10.608;2023-05-23T02:32:39;21.65;;;13.55;;
21430;SDS011;10876;49.038;10.608;2023-05-23T02:35:07;24.00;;;13.30;;
21430;SDS011;10876;49.038;10.608;2023-05-23T02:37:35;20.08;;;12.35;;
21430;SDS011;10876;49.038;10.608;2023-05-23T02:40:03;20.63;;;13.32;;
21430;SDS011;10876;49.038;10.608;2023-05-23T02:42:31;21.02;;;13.10;;
21430;SDS011;10876;49.038;10.608;2023-05-23T02:44:58;22.73;;;13.77;;
21430;SDS011;10876;49.038;10.608;2023-05-23T02:47:25;25.83;;;13.73;;
21430;SDS011;10876;49.038;10.608;2023-05-23T02:49:52;23.10;;;14.38;;
21430;SDS011;10876;49.038;10.608;2023-05-23T02:52:19;22.95;;;13.73;;
21430;SDS011;10876;49.038;10.608;2023-05-23T02:54:47;23.27;;;14.40;;
21430;SDS011;10876;49.038;10.608;2023-05-23T02:57:14;23.30;;;13.95;;
21430;SDS011;10876;49.038;10.608;2023-05-23T02:59:42;22.92;;;13.65;;
21430;SDS011;10876;49.038;10.608;2023-05-23T03:02:20;23.90;;;14.55;;
21430;SDS011;10876;49.038;10.608;2023-05-23T03:04:48;25.38;;;14.57;;
21430;SDS011;10876;49.038;10.608;2023-05-23T03:07:15;26.23;;;15.02;;
21430;SDS011;10876;49.038;10.608;2023-05-23T03:09:42;23.25;;;14.70;;
21430;SDS011;10876;49.038;10.608;2023-05-23T03:12:10;25.25;;;14.77;;
21430;SDS011;10876;49.038;10.608;2023-05-23T03:14:37;27.05;;;14.73;;
21430;SDS011;10876;49.038;10.608;2023-05-23T03:17:04;24.95;;;15.00;;
21430;SDS011;10876;49.038;10.608;2023-05-23T03:19:38;27.27;;;15.18;;
21430;SDS011;10876;49.038;10.608;2023-05-23T03:22:12;23.98;;;15.25;;
21430;SDS011;10876;49.038;10.608;2023-05-23T03:24:42;24.95;;;14.65;;
21430;SDS011;10876;49.038;10.608;2023-05-23T03:27:10;24.00;;;15.02;;
21430;SDS011;10876;49.038;10.608;2023-05-23T03:29:37;27.15;;;15.95;;
21430;SDS011;10876;49.038;10.608;2023-05-23T03:32:04;25.10;;;16.00;;
21430;SDS011;10876;49.038;10.608;2023-05-23T03:34:31;30.30;;;16.10;;
21430;SDS011;10876;49.038;10.608;2023-05-23T03:37:00;30.50;;;16.00;;
21430;SDS011;10876;49.038;10.608;2023-05-23T03:39:28;26.95;;;15.20;;
21430;SDS011;10876;49.038;10.608;2023-05-23T03:41:55;27.17;;;15.20;;
21430;SDS011;10876;49.038;10.608;2023-05-23T03:44:23;27.17;;;15.25;;
21430;SDS011;10876;49.038;10.608;2023-05-23T03:46:50;27.42;;;15.52;;
21430;SDS011;10876;49.038;10.608;2023-05-23T03:49:17;25.25;;;15.30;;
21430;SDS011;10876;49.038;10.608;2023-05-23T03:51:44;27.90;;;15.63;;
21430;SDS011;10876;49.038;10.608;2023-05-23T03:54:11;27.77;;;15.93;;
21430;SDS011;10876;49.038;10.608;2023-05-23T03:56:38;25.88;;;15.60;;
21430;SDS011;10876;49.038;10.608;2023-05-23T03:59:05;27.20;;;16.02;;
21430;SDS011;10876;49.038;10.608;2023-05-23T04:01:33;33.25;;;16.58;;
21430;SDS011;10876;49.038;10.608;2023-05-23T04:04:00;31.20;;;16.98;;
21430;SDS011;10876;49.038;10.608;2023-05-23T04:06:29;31.50;;;16.92;;
21430;SDS011;10876;49.038;10.608;2023-05-23T04:08:57;32.03;;;18.08;;
21430;SDS011;10876;49.038;10.608;2023-05-23T04:11:25;31.88;;;17.23;;
21430;SDS011;10876;49.038;10.608;2023-05-23T04:13:52;32.85;;;17.77;;
21430;SDS011;10876;49.038;10.608;2023-05-23T04:16:19;30.98;;;17.60;;
21430;SDS011;10876;49.038;10.608;2023-05-23T04:18:48;30.98;;;18.08;;
21430;SDS011;10876;49.038;10.608;2023-05-23T04:21:16;30.00;;;17.17;;
21430;SDS011;10876;49.038;10.608;2023-05-23T04:23:42;31.95;;;17.63;;
21430;SDS011;10876;49.038;10.608;2023-05-23T04:26:10;30.58;;;17.60;;
21430;SDS011;10876;49.038;10.608;2023-05-23T04:28:37;31.65;;;17.92;;
21430;SDS011;10876;49.038;10.608;2023-05-23T04:31:04;33.45;;;18.38;;
21430;SDS011;10876;49.038;10.608;2023-05-23T04:33:31;28.38;;;16.90;;
21430;SDS011;10876;49.038;10.608;2023-05-23T04:36:03;30.73;;;17.48;;
21430;SDS011;10876;49.038;10.608;2023-05-23T04:38:33;32.85;;;17.60;;
21430;SDS011;10876;49.038;10.608;2023-05-23T04:41:03;34.38;;;18.52;;
21430;SDS011;10876;49.038;10.608;2023-05-23T04:43:30;30.10;;;17.23;;
21430;SDS011;10876;49.038;10.608;2023-05-23T04:45:57;32.20;;;17.90;;
21430;SDS011;10876;49.038;10.608;2023-05-23T04:48:26;29.50;;;17.20;;
21430;SDS011;10876;49.038;10.608;2023-05-23T04:50:53;32.53;;;17.90;;
21430;SDS011;10876;49.038;10.608;2023-05-23T04:53:23;33.63;;;18.65;;
21430;SDS011;10876;49.038;10.608;2023-05-23T04:55:49;35.58;;;18.98;;
21430;SDS011;10876;49.038;10.608;2023-05-23T04:58:16;29.45;;;17.45;;
21430;SDS011;10876;49.038;10.608;2023-05-23T05:00:44;35.33;;;19.58;;
21430;SDS011;10876;49.038;10.608;2023-05-23T05:03:11;34.80;;;18.88;;
21430;SDS011;10876;49.038;10.608;2023-05-23T05:05:38;33.00;;;18.90;;
21430;SDS011;10876;49.038;10.608;2023-05-23T05:08:05;34.47;;;19.13;;
21430;SDS011;10876;49.038;10.608;2023-05-23T05:10:34;35.47;;;18.17;;
21430;SDS011;10876;49.038;10.608;2023-05-23T05:13:01;30.73;;;17.63;;
21430;SDS011;10876;49.038;10.608;2023-05-23T05:15:27;30.88;;;17.60;;
21430;SDS011;10876;49.038;10.608;2023-05-23T05:17:54;27.95;;;16.67;;
21430;SDS011;10876;49.038;10.608;2023-05-23T05:20:21;29.25;;;16.35;;
21430;SDS011;10876;49.038;10.608;2023-05-23T05:22:53;29.67;;;16.67;;
21430;SDS011;10876;49.038;10.608;2023-05-23T05:25:21;26.33;;;16.13;;
21430;SDS011;10876;49.038;10.608;2023-05-23T05:27:49;29.63;;;16.23;;
21430;SDS011;10876;49.038;10.608;2023-05-23T05:30:16;26.95;;;16.08;;
21430;SDS011;10876;49.038;10.608;2023-05-23T05:32:43;28.17;;;16.58;;
21430;SDS011;10876;49.038;10.608;2023-05-23T05:35:11;28.02;;;15.55;;
21430;SDS011;10876;49.038;10.608;2023-05-23T05:37:39;25.73;;;15.30;;
21430;SDS011;10876;49.038;10.608;2023-05-23T05:40:06;25.50;;;14.57;;
21430;SDS011;10876;49.038;10.608;2023-05-23T05:42:34;27.50;;;15.75;;
21430;SDS011;10876;49.038;10.608;2023-05-23T05:45:02;25.88;;;14.98;;
21430;SDS011;10876;49.038;10.608;2023-05-23T05:47:30;27.35;;;15.13;;
21430;SDS011;10876;49.038;10.608;2023-05-23T05:49:56;23.42;;;14.23;;
21430;SDS011;10876;49.038;10.608;2023-05-23T05:52:23;25.50;;;14.68;;
21430;SDS011;10876;49.038;10.608;2023-05-23T05:54:50;24.67;;;14.63;;
21430;SDS011;10876;49.038;10.608;2023-05-23T05:57:17;24.20;;;13.82;;
21430;SDS011;10876;49.038;10.608;2023-05-23T05:59:44;25.70;;;14.75;;
21430;SDS011;10876;49.038;10.608;2023-05-23T06:02:13;24.27;;;14.25;;
21430;SDS011;10876;49.038;10.608;2023-05-23T06:04:39;23.52;;;14.25;;
21430;SDS011;10876;49.038;10.608;2023-05-23T06:07:06;26.02;;;14.07;;
21430;SDS011;10876;49.038;10.608;2023-05-23T06:09:33;22.83;;;14.52;;
21430;SDS011;10876;49.038;10.608;2023-05-23T06:12:00;23.25;;;13.75;;
21430;SDS011;10876;49.038;10.608;2023-05-23T06:14:27;18.98;;;12.98;;
21430;SDS011;10876;49.038;10.608;2023-05-23T06:16:54;24.88;;;13.98;;
21430;SDS011;10876;49.038;10.608;2023-05-23T06:19:22;22.17;;;13.80;;
21430;SDS011;10876;49.038;10.608;2023-05-23T06:21:49;20.35;;;12.98;;
21430;SDS011;10876;49.038;10.608;2023-05-23T06:24:16;23.33;;;13.88;;
21430;SDS011;10876;49.038;10.608;2023-05-23T06:26:43;21.38;;;13.35;;
21430;SDS011;10876;49.038;10.608;2023-05-23T06:29:10;21.38;;;13.38;;
21430;SDS011;10876;49.038;10.608;2023-05-23T06:31:38;21.27;;;13.65;;
21430;SDS011;10876;49.038;10.608;2023-05-23T06:34:05;21.55;;;13.07;;
21430;SDS011;10876;49.038;10.608;2023-05-23T06:36:33;21.85;;;13.95;;
21430;SDS011;10876;49.038;10.608;2023-05-23T06:39:00;19.83;;;12.50;;
21430;SDS011;10876;49.038;10.608;2023-05-23T06:41:27;20.90;;;13.32;;
21430;SDS011;10876;49.038;10.608;2023-05-23T06:43:54;19.92;;;12.73;;
21430;SDS011;10876;49.038;10.608;2023-05-23T06:46:20;19.42;;;12.77;;
21430;SDS011;10876;49.038;10.608;2023-05-23T06:48:47;19.13;;;12.75;;
21430;SDS011;10876;49.038;10.608;2023-05-23T06:51:14;20.33;;;12.35;;
21430;SDS011;10876;49.038;10.608;2023-05-23T06:53:43;17.90;;;12.27;;
21430;SDS011;10876;49.038;10.608;2023-05-23T06:56:10;17.45;;;10.80;;
21430;SDS011;10876;49.038;10.608;2023-05-23T06:58:37;18.67;;;11.23;;
21430;SDS011;10876;49.038;10.608;2023-05-23T07:01:04;18.08;;;10.77;;
21430;SDS011;10876;49.038;10.608;2023-05-23T07:03:30;15.38;;;10.57;;
21430;SDS011;10876;49.038;10.608;2023-05-23T07:05:58;18.05;;;10.93;;
21430;SDS011;10876;49.038;10.608;2023-05-23T07:08:25;17.25;;;10.85;;
21430;SDS011;10876;49.038;10.608;2023-05-23T07:10:53;17.40;;;10.95;;
21430;SDS011;10876;49.038;10.608;2023-05-23T07:13:20;18.55;;;10.70;;
21430;SDS011;10876;49.038;10.608;2023-05-23T07:15:47;17.60;;;11.20;;
21430;SDS011;10876;49.038;10.608;2023-05-23T07:18:14;17.63;;;11.55;;
21430;SDS011;10876;49.038;10.608;2023-05-23T07:20:40;20.63;;;12.80;;
21430;SDS011;10876;49.038;10.608;2023-05-23T07:23:07;21.00;;;12.38;;
21430;SDS011;10876;49.038;10.608;2023-05-23T07:25:34;20.23;;;12.65;;
21430;SDS011;10876;49.038;10.608;2023-05-23T07:28:03;19.25;;;12.13;;
21430;SDS011;10876;49.038;10.608;2023-05-23T07:30:30;23.65;;;13.18;;
21430;SDS011;10876;49.038;10.608;2023-05-23T07:32:58;21.67;;;13.43;;
21430;SDS011;10876;49.038;10.608;2023-05-23T07:35:25;21.77;;;13.18;;
21430;SDS011;10876;49.038;10.608;2023-05-23T07:37:52;18.63;;;12.90;;
21430;SDS011;10876;49.038;10.608;2023-05-23T07:40:19;18.85;;;11.55;;
21430;SDS011;10876;49.038;10.608;2023-05-23T07:42:47;19.02;;;12.50;;
21430;SDS011;10876;49.038;10.608;2023-05-23T07:45:15;19.13;;;11.93;;
21430;SDS011;10876;49.038;10.608;2023-05-23T07:47:42;21.23;;;11.95;;
21430;SDS011;10876;49.038;10.608;2023-05-23T07:50:09;17.58;;;11.48;;
21430;SDS011;10876;49.038;10.608;2023-05-23T07:52:37;19.50;;;11.77;;
21430;SDS011;10876;49.038;10.608;2023-05-23T07:55:04;18.08;;;11.45;;
21430;SDS011;10876;49.038;10.608;2023-05-23T07:57:32;18.35;;;11.93;;
21430;SDS011;10876;49.038;10.608;2023-05-23T07:59:59;17.85;;;11.73;;
21430;SDS011;10876;49.038;10.608;2023-05-23T08:02:27;17.75;;;10.82;;
21430;SDS011;10876;49.038;10.608;2023-05-23T08:04:54;16.90;;;11.77;;
21430;SDS011;10876;49.038;10.608;2023-05-23T08:07:21;16.17;;;10.65;;
21430;SDS011;10876;49.038;10.608;2023-05-23T08:09:49;16.65;;;10.70;;
21430;SDS011;10876;49.038;10.608;2023-05-23T08:12:16;14.43;;;10.15;;
21430;SDS011;10876;49.038;10.608;2023-05-23T08:14:43;15.18;;;9.98;;
21430;SDS011;10876;49.038;10.608;2023-05-23T08:17:10;15.77;;;9.73;;
21430;SDS011;10876;49.038;10.608;2023-05-23T08:19:39;13.85;;;10.00;;
21430;SDS011;10876;49.038;10.608;2023-05-23T08:22:08;18.60;;;11.40;;
21430;SDS011;10876;49.038;10.608;2023-05-23T08:24:35;20.08;;;12.07;;
21430;SDS011;10876;49.038;10.608;2023-05-23T08:27:02;18.40;;;11.95;;
21430;SDS011;10876;49.038;10.608;2023-05-23T08:29:29;19.00;;;11.52;;
21430;SDS011;10876;49.038;10.608;2023-05-23T08:31:56;17.52;;;11.00;;
21430;SDS011;10876;49.038;10.608;2023-05-23T08:34:22;17.15;;;11.23;;
21430;SDS011;10876;49.038;10.608;2023-05-23T08:36:51;20.33;;;12.07;;
21430;SDS011;10876;49.038;10.608;2023-05-23T08:39:18;17.65;;;11.90;;
21430;SDS011;10876;49.038;10.608;2023-05-23T08:41:45;15.45;;;10.85;;
21430;SDS011;10876;49.038;10.608;2023-05-23T08:44:12;15.80;;;10.77;;
21430;SDS011;10876;49.038;10.608;2023-05-23T08:46:42;17.45;;;11.20;;
21430;SDS011;10876;49.038;10.608;2023-05-23T08:49:11;17.17;;;10.18;;
21430;SDS011;10876;49.038;10.608;2023-05-23T08:51:41;14.18;;;10.63;;
21430;SDS011;10876;49.038;10.608;2023-05-23T08:54:10;14.57;;;10.00;;
21430;SDS011;10876;49.038;10.608;2023-05-23T08:56:38;23.02;;;10.13;;
21430;SDS011;10876;49.038;10.608;2023-05-23T08:59:06;13.15;;;9.68;;
21430;SDS011;10876;49.038;10.608;2023-05-23T09:01:34;18.52;;;10.40;;
21430;SDS011;10876;49.038;10.608;2023-05-23T09:04:04;16.20;;;10.85;;
21430;SDS011;10876;49.038;10.608;2023-05-23T09:06:32;15.63;;;10.10;;
21430;SDS011;10876;49.038;10.608;2023-05-23T09:08:59;14.82;;;10.63;;
21430;SDS011;10876;49.038;10.608;2023-05-23T09:11:27;18.23;;;10.38;;
21430;SDS011;10876;49.038;10.608;2023-05-23T09:13:58;16.50;;;10.70;;
21430;SDS011;10876;49.038;10.608;2023-05-23T09:16:30;19.83;;;11.63;;
21430;SDS011;10876;49.038;10.608;2023-05-23T09:18:58;17.95;;;10.85;;
21430;SDS011;10876;49.038;10.608;2023-05-23T09:21:25;18.88;;;11.80;;
21430;SDS011;10876;49.038;10.608;2023-05-23T09:23:53;17.23;;;11.02;;
21430;SDS011;10876;49.038;10.608;2023-05-23T09:26:21;16.10;;;11.20;;
21430;SDS011;10876;49.038;10.608;2023-05-23T09:28:49;18.52;;;11.50;;
21430;SDS011;10876;49.038;10.608;2023-05-23T09:31:16;20.27;;;11.73;;
21430;SDS011;10876;49.038;10.608;2023-05-23T09:33:44;18.20;;;11.27;;
21430;SDS011;10876;49.038;10.608;2023-05-23T09:36:13;16.20;;;10.07;;
21430;SDS011;10876;49.038;10.608;2023-05-23T09:38:41;18.15;;;10.73;;
21430;SDS011;10876;49.038;10.608;2023-05-23T09:41:09;13.50;;;10.30;;
21430;SDS011;10876;49.038;10.608;2023-05-23T09:43:37;17.73;;;9.68;;
21430;SDS011;10876;49.038;10.608;2023-05-23T09:46:09;17.27;;;9.48;;
21430;SDS011;10876;49.038;10.608;2023-05-23T09:48:36;14.05;;;8.98;;
21430;SDS011;10876;49.038;10.608;2023-05-23T09:51:04;11.77;;;8.15;;
21430;SDS011;10876;49.038;10.608;2023-05-23T09:53:31;13.00;;;8.68;;
21430;SDS011;10876;49.038;10.608;2023-05-23T09:55:58;11.35;;;8.63;;
21430;SDS011;10876;49.038;10.608;2023-05-23T09:58:28;11.55;;;7.93;;
21430;SDS011;10876;49.038;10.608;2023-05-23T10:00:56;12.38;;;7.95;;
21430;SDS011;10876;49.038;10.608;2023-05-23T10:03:30;12.10;;;8.32;;
21430;SDS011;10876;49.038;10.608;2023-05-23T10:06:03;12.35;;;8.70;;
21430;SDS011;10876;49.038;10.608;2023-05-23T10:08:35;11.95;;;7.95;;
21430;SDS011;10876;49.038;10.608;2023-05-23T10:11:33;10.52;;;7.78;;
21430;SDS011;10876;49.038;10.608;2023-05-23T10:14:34;13.00;;;7.35;;
21430;SDS011;10876;49.038;10.608;2023-05-23T10:17:07;10.10;;;7.70;;
21430;SDS011;10876;49.038;10.608;2023-05-23T10:19:42;12.05;;;7.68;;
21430;SDS011;10876;49.038;10.608;2023-05-23T10:22:13;10.95;;;7.18;;
21430;SDS011;10876;49.038;10.608;2023-05-23T10:24:43;11.25;;;7.47;;
21430;SDS011;10876;49.038;10.608;2023-05-23T10:27:10;10.35;;;7.15;;
21430;SDS011;10876;49.038;10.608;2023-05-23T10:29:38;12.63;;;7.53;;
21430;SDS011;10876;49.038;10.608;2023-05-23T10:32:05;10.18;;;6.70;;
21430;SDS011;10876;49.038;10.608;2023-05-23T10:34:35;8.93;;;6.90;;
21430;SDS011;10876;49.038;10.608;2023-05-23T10:37:09;9.57;;;6.93;;
21430;SDS011;10876;49.038;10.608;2023-05-23T10:39:45;8.88;;;6.35;;
21430;SDS011;10876;49.038;10.608;2023-05-23T10:42:21;7.65;;;5.82;;
21430;SDS011;10876;49.038;10.608;2023-05-23T10:45:15;9.38;;;5.65;;
21430;SDS011;10876;49.038;10.608;2023-05-23T10:47:43;11.10;;;6.40;;
21430;SDS011;10876;49.038;10.608;2023-05-23T10:50:12;8.90;;;6.43;;
21430;SDS011;10876;49.038;10.608;2023-05-23T10:52:42;8.35;;;5.78;;
21430;SDS011;10876;49.038;10.608;2023-05-23T10:55:12;6.55;;;5.05;;
21430;SDS011;10876;49.038;10.608;2023-05-23T10:57:42;6.45;;;5.15;;
21430;SDS011;10876;49.038;10.608;2023-05-23T11:00:13;7.75;;;5.07;;
21430;SDS011;10876;49.038;10.608;2023-05-23T11:02:46;7.82;;;5.70;;
21430;SDS011;10876;49.038;10.608;2023-05-23T11:05:19;7.20;;;4.97;;
21430;SDS011;10876;49.038;10.608;2023-05-23T11:10:50;9.00;;;5.60;;
21430;SDS011;10876;49.038;10.608;2023-05-23T11:13:18;8.40;;;5.68;;
21430;SDS011;10876;49.038;10.608;2023-05-23T11:15:56;9.65;;;5.82;;
21430;SDS011;10876;49.038;10.608;2023-05-23T11:18:42;7.97;;;6.07;;
21430;SDS011;10876;49.038;10.608;2023-05-23T11:21:09;10.38;;;6.10;;
21430;SDS011;10876;49.038;10.608;2023-05-23T11:23:41;10.95;;;6.18;;
21430;SDS011;10876;49.038;10.608;2023-05-23T11:28:56;11.48;;;6.57;;
21430;SDS011;10876;49.038;10.608;2023-05-23T11:31:24;12.43;;;6.85;;
21430;SDS011;10876;49.038;10.608;2023-05-23T11:33:52;9.68;;;6.60;;
21430;SDS011;10876;49.038;10.608;2023-05-23T11:36:19;10.50;;;6.15;;
21430;SDS011;10876;49.038;10.608;2023-05-23T11:38:48;9.52;;;6.60;;
21430;SDS011;10876;49.038;10.608;2023-05-23T11:41:17;10.35;;;6.50;;
21430;SDS011;10876;49.038;10.608;2023-05-23T11:43:52;9.13;;;6.00;;
21430;SDS011;10876;49.038;10.608;2023-05-23T11:46:20;11.63;;;7.15;;
21430;SDS011;10876;49.038;10.608;2023-05-23T11:48:49;12.68;;;6.53;;
21430;SDS011;10876;49.038;10.608;2023-05-23T11:51:16;9.88;;;7.05;;
21430;SDS011;10876;49.038;10.608;2023-05-23T11:53:44;9.65;;;6.95;;
21430;SDS011;10876;49.038;10.608;2023-05-23T11:56:13;9.77;;;6.78;;
21430;SDS011;10876;49.038;10.608;2023-05-23T11:58:40;7.72;;;5.43;;
21430;SDS011;10876;49.038;10.608;2023-05-23T12:01:10;8.35;;;5.63;;
21430;SDS011;10876;49.038;10.608;2023-05-23T12:03:43;8.50;;;5.60;;
21430;SDS011;10876;49.038;10.608;2023-05-23T12:06:13;9.75;;;6.53;;
21430;SDS011;10876;49.038;10.608;2023-05-23T12:08:45;6.95;;;4.88;;
21430;SDS011;10876;49.038;10.608;2023-05-23T12:11:14;7.97;;;5.93;;
21430;SDS011;10876;49.038;10.608;2023-05-23T12:13:41;7.45;;;5.28;;
21430;SDS011;10876;49.038;10.608;2023-05-23T12:16:09;8.85;;;5.47;;
21430;SDS011;10876;49.038;10.608;2023-05-23T12:18:39;7.22;;;5.10;;
21430;SDS011;10876;49.038;10.608;2023-05-23T12:21:07;7.20;;;4.10;;
21430;SDS011;10876;49.038;10.608;2023-05-23T12:23:34;9.30;;;4.30;;
21430;SDS011;10876;49.038;10.608;2023-05-23T12:26:03;4.60;;;3.90;;
21430;SDS011;10876;49.038;10.608;2023-05-23T12:28:35;5.65;;;4.03;;
21430;SDS011;10876;49.038;10.608;2023-05-23T12:31:10;6.57;;;4.05;;
21430;SDS011;10876;49.038;10.608;2023-05-23T12:33:38;4.40;;;3.30;;
21430;SDS011;10876;49.038;10.608;2023-05-23T12:36:07;5.38;;;3.67;;
21430;SDS011;10876;49.038;10.608;2023-05-23T12:38:35;3.83;;;3.20;;
21430;SDS011;10876;49.038;10.608;2023-05-23T12:41:08;6.57;;;3.50;;
21430;SDS011;10876;49.038;10.608;2023-05-23T12:43:47;6.80;;;3.53;;
21430;SDS011;10876;49.038;10.608;2023-05-23T12:46:17;4.22;;;2.72;;
21430;SDS011;10876;49.038;10.608;2023-05-23T12:48:47;4.03;;;2.90;;
21430;SDS011;10876;49.038;10.608;2023-05-23T12:51:14;4.47;;;2.80;;
21430;SDS011;10876;49.038;10.608;2023-05-23T12:53:41;3.20;;;2.85;;
21430;SDS011;10876;49.038;10.608;2023-05-23T12:56:09;5.32;;;2.78;;
21430;SDS011;10876;49.038;10.608;2023-05-23T12:58:36;4.03;;;2.70;;
21430;SDS011;10876;49.038;10.608;2023-05-23T13:01:04;5.13;;;2.85;;
21430;SDS011;10876;49.038;10.608;2023-05-23T13:03:31;4.45;;;2.83;;
21430;SDS011;10876;49.038;10.608;2023-05-23T13:05:58;2.70;;;2.33;;
21430;SDS011;10876;49.038;10.608;2023-05-23T13:08:26;3.80;;;2.65;;
21430;SDS011;10876;49.038;10.608;2023-05-23T13:10:53;5.20;;;2.55;;
21430;SDS011;10876;49.038;10.608;2023-05-23T13:13:21;4.18;;;2.33;;
21430;SDS011;10876;49.038;10.608;2023-05-23T13:15:48;3.97;;;2.55;;
21430;SDS011;10876;49.038;10.608;2023-05-23T13:18:16;5.25;;;2.60;;
21430;SDS011;10876;49.038;10.608;2023-05-23T13:20:43;3.00;;;2.40;;
21430;SDS011;10876;49.038;10.608;2023-05-23T13:23:10;3.35;;;2.97;;
21430;SDS011;10876;49.038;10.608;2023-05-23T13:25:37;3.00;;;2.50;;
21430;SDS011;10876;49.038;10.608;2023-05-23T13:28:04;2.92;;;2.25;;
21430;SDS011;10876;49.038;10.608;2023-05-23T13:30:31;3.30;;;2.40;;
21430;SDS011;10876;49.038;10.608;2023-05-23T13:32:58;4.03;;;2.30;;
21430;SDS011;10876;49.038;10.608;2023-05-23T13:35:27;5.20;;;2.17;;
21430;SDS011;10876;49.038;10.608;2023-05-23T13:37:54;3.08;;;2.40;;
21430;SDS011;10876;49.038;10.608;2023-05-23T13:40:21;3.20;;;2.58;;
21430;SDS011;10876;49.038;10.608;2023-05-23T13:42:49;2.92;;;2.38;;
21430;SDS011;10876;49.038;10.608;2023-05-23T13:45:16;5.05;;;2.50;;
21430;SDS011;10876;49.038;10.608;2023-05-23T13:47:44;6.60;;;2.30;;
21430;SDS011;10876;49.038;10.608;2023-05-23T13:50:13;3.00;;;2.42;;
21430;SDS011;10876;49.038;10.608;2023-05-23T13:52:41;4.22;;;2.28;;
21430;SDS011;10876;49.038;10.608;2023-05-23T13:55:08;4.53;;;2.30;;
21430;SDS011;10876;49.038;10.608;2023-05-23T13:57:35;2.50;;;2.10;;
21430;SDS011;10876;49.038;10.608;2023-05-23T14:00:03;3.10;;;2.40;;
21430;SDS011;10876;49.038;10.608;2023-05-23T14:02:35;3.40;;;2.08;;
21430;SDS011;10876;49.038;10.608;2023-05-23T14:05:02;3.13;;;2.30;;
21430;SDS011;10876;49.038;10.608;2023-05-23T14:07:31;3.28;;;2.20;;
21430;SDS011;10876;49.038;10.608;2023-05-23T14:10:01;2.72;;;1.90;;
21430;SDS011;10876;49.038;10.608;2023-05-23T14:12:29;2.25;;;1.77;;
21430;SDS011;10876;49.038;10.608;2023-05-23T14:14:56;3.28;;;2.30;;
21430;SDS011;10876;49.038;10.608;2023-05-23T14:17:23;4.28;;;2.42;;
21430;SDS011;10876;49.038;10.608;2023-05-23T14:19:50;3.20;;;2.20;;
21430;SDS011;10876;49.038;10.608;2023-05-23T14:22:17;2.35;;;1.70;;
21430;SDS011;10876;49.038;10.608;2023-05-23T14:24:44;2.88;;;2.30;;
21430;SDS011;10876;49.038;10.608;2023-05-23T14:27:15;1.98;;;1.67;;
21430;SDS011;10876;49.038;10.608;2023-05-23T14:29:43;3.95;;;1.90;;